createdAt,value
2018-08-23T00:01:37.290Z,18.50
2018-08-23T00:04:10.661Z,18.40
2018-08-23T00:06:43.235Z,18.40
2018-08-23T00:09:12.290Z,18.40
2018-08-23T00:11:48.030Z,18.40
2018-08-23T00:14:17.847Z,18.40
2018-08-23T00:16:47.615Z,18.30
2018-08-23T00:19:17.536Z,18.30
2018-08-23T00:21:49.622Z,18.40
2018-08-23T00:24:20.490Z,18.30
2018-08-23T00:26:57.342Z,18.30
2018-08-23T00:29:28.551Z,18.30
2018-08-23T00:31:59.246Z,18.30
2018-08-23T00:34:32.630Z,18.30
2018-08-23T00:37:02.895Z,18.20
2018-08-23T00:39:31.749Z,18.20
2018-08-23T00:42:05.843Z,18.20
2018-08-23T00:44:51.265Z,18.20
2018-08-23T00:47:20.207Z,18.20
2018-08-23T00:49:48.982Z,18.10
2018-08-23T00:52:19.374Z,18.10
2018-08-23T00:54:48.490Z,18.10
2018-08-23T00:57:17.715Z,18.10
2018-08-23T00:59:59.710Z,18.00
2018-08-23T01:02:28.995Z,17.90
2018-08-23T01:04:58.091Z,17.80
2018-08-23T01:07:29.783Z,17.70
2018-08-23T01:10:00.364Z,17.70
2018-08-23T01:12:29.648Z,17.60
2018-08-23T01:14:59.032Z,17.50
2018-08-23T01:17:28.211Z,17.50
2018-08-23T01:20:00.096Z,17.50
2018-08-23T01:22:29.197Z,17.50
2018-08-23T01:25:00.766Z,17.50
2018-08-23T01:27:35.047Z,17.50
2018-08-23T01:30:04.577Z,17.50
2018-08-23T01:32:34.063Z,17.50
2018-08-23T01:35:09.896Z,17.50
2018-08-23T01:37:40.146Z,17.40
2018-08-23T01:40:10.539Z,17.40
2018-08-23T01:42:40.801Z,17.40
2018-08-23T01:45:11.067Z,17.40
2018-08-23T01:47:46.786Z,17.40
2018-08-23T01:50:15.850Z,17.30
2018-08-23T01:52:45.856Z,17.30
2018-08-23T01:55:15.896Z,17.30
2018-08-23T01:57:45.495Z,17.30
2018-08-23T02:00:17.965Z,17.30
2018-08-23T02:02:47.291Z,17.30
2018-08-23T02:05:18.847Z,17.30
2018-08-23T02:07:47.932Z,17.30
2018-08-23T02:10:17.276Z,17.30
2018-08-23T02:12:51.259Z,17.20
2018-08-23T02:15:20.681Z,17.10
2018-08-23T02:17:54.806Z,17.00
2018-08-23T02:20:24.901Z,17.00
2018-08-23T02:22:54.991Z,16.90
2018-08-23T02:25:24.521Z,16.80
2018-08-23T02:28:01.112Z,16.80
2018-08-23T02:30:42.235Z,16.80
2018-08-23T02:33:12.408Z,16.90
2018-08-23T02:35:47.800Z,16.90
2018-08-23T02:38:16.928Z,16.90
2018-08-23T02:40:52.515Z,16.90
2018-08-23T02:43:21.612Z,16.90
2018-08-23T02:45:51.577Z,16.90
2018-08-23T02:48:21.801Z,16.90
2018-08-23T02:50:51.563Z,16.90
2018-08-23T02:53:32.794Z,16.80
2018-08-23T02:56:04.954Z,16.70
2018-08-23T02:58:36.846Z,16.60
2018-08-23T03:01:06.316Z,16.50
2018-08-23T03:03:35.815Z,16.30
2018-08-23T03:06:06.160Z,16.30
2018-08-23T03:08:43.927Z,16.30
2018-08-23T03:11:13.110Z,16.40
2018-08-23T03:13:44.805Z,16.30
2018-08-23T03:16:14.316Z,16.30
2018-08-23T03:18:43.361Z,16.30
2018-08-23T03:21:12.390Z,16.30
2018-08-23T03:23:46.260Z,16.30
2018-08-23T03:26:15.270Z,16.20
2018-08-23T03:28:44.631Z,16.20
2018-08-23T03:31:13.656Z,16.20
2018-08-23T03:33:42.801Z,16.20
2018-08-23T03:36:11.849Z,16.20
2018-08-23T03:38:47.320Z,16.20
2018-08-23T03:41:16.401Z,16.10
2018-08-23T03:43:45.436Z,16.10
2018-08-23T03:46:14.905Z,16.10
2018-08-23T03:48:46.195Z,16.10
2018-08-23T03:51:15.260Z,16.10
2018-08-23T03:53:49.785Z,16.10
2018-08-23T03:56:18.874Z,16.10
2018-08-23T03:58:48.218Z,16.10
2018-08-23T04:01:17.522Z,16.10
2018-08-23T04:03:46.717Z,16.10
2018-08-23T04:06:31.527Z,16.00
2018-08-23T04:09:00.525Z,16.00
2018-08-23T04:11:29.811Z,15.90
2018-08-23T04:13:58.883Z,15.90
2018-08-23T04:16:30.826Z,15.90
2018-08-23T04:18:59.931Z,15.90
2018-08-23T04:21:30.021Z,15.90
2018-08-23T04:23:59.055Z,15.90
2018-08-23T04:26:29.338Z,15.90
2018-08-23T04:28:58.399Z,15.90
2018-08-23T04:31:27.735Z,15.80
2018-08-23T04:33:57.180Z,15.80
2018-08-23T04:36:31.480Z,15.80
2018-08-23T04:39:16.379Z,15.70
2018-08-23T04:41:45.559Z,15.70
2018-08-23T04:44:16.306Z,15.70
2018-08-23T04:46:45.601Z,15.70
2018-08-23T04:49:15.030Z,15.70
2018-08-23T04:51:44.074Z,15.70
2018-08-23T04:54:13.191Z,15.70
2018-08-23T04:56:42.674Z,15.70
2018-08-23T04:59:12.160Z,15.80
2018-08-23T05:01:41.645Z,15.80
2018-08-23T05:04:10.794Z,15.70
2018-08-23T05:06:39.905Z,15.70
2018-08-23T05:09:09.689Z,15.70
2018-08-23T05:11:38.738Z,15.70
2018-08-23T05:14:07.872Z,15.80
2018-08-23T05:16:37.711Z,15.70
2018-08-23T05:19:06.852Z,15.70
2018-08-23T05:21:35.634Z,15.70
2018-08-23T05:24:10.069Z,15.60
2018-08-23T05:26:39.095Z,15.60
2018-08-23T05:29:09.095Z,15.70
2018-08-23T05:31:38.218Z,15.70
2018-08-23T05:34:09.399Z,15.70
2018-08-23T05:36:38.848Z,15.80
2018-08-23T05:39:08.956Z,15.80
2018-08-23T05:41:38.230Z,15.90
2018-08-23T05:44:14.606Z,16.00
2018-08-23T05:46:49.185Z,16.10
2018-08-23T05:49:19.104Z,16.10
2018-08-23T05:51:49.805Z,16.20
2018-08-23T05:54:20.727Z,16.20
2018-08-23T05:56:50.125Z,16.30
2018-08-23T05:59:20.545Z,16.40
2018-08-23T06:01:50.293Z,16.50
2018-08-23T06:04:29.129Z,16.60
2018-08-23T06:06:59.189Z,16.70
2018-08-23T06:09:28.596Z,16.70
2018-08-23T06:11:57.624Z,16.80
2018-08-23T06:14:27.159Z,16.90
2018-08-23T06:16:59.220Z,17.00
2018-08-23T06:19:29.145Z,17.10
2018-08-23T06:21:58.241Z,17.20
2018-08-23T06:24:29.384Z,17.30
2018-08-23T06:27:01.098Z,17.40
2018-08-23T06:29:35.499Z,17.60
2018-08-23T06:32:08.755Z,17.70
2018-08-23T06:34:43.381Z,17.80
2018-08-23T06:37:16.929Z,17.90
2018-08-23T06:39:46.194Z,18.00
2018-08-23T06:42:15.894Z,18.10
2018-08-23T06:44:49.623Z,18.20
2018-08-23T06:47:20.878Z,18.30
2018-08-23T06:49:51.796Z,18.50
2018-08-23T06:52:30.359Z,18.60
2018-08-23T06:54:59.394Z,18.70
2018-08-23T06:57:34.353Z,18.80
2018-08-23T07:00:03.628Z,19.00
2018-08-23T07:02:32.713Z,19.20
2018-08-23T07:05:01.860Z,19.30
2018-08-23T07:07:31.395Z,19.40
2018-08-23T07:10:00.708Z,19.50
2018-08-23T07:12:30.066Z,19.50
2018-08-23T07:14:59.153Z,19.70
2018-08-23T07:17:31.874Z,19.80
2018-08-23T07:20:03.548Z,19.90
2018-08-23T07:22:35.113Z,20.10
2018-08-23T07:25:04.344Z,20.20
2018-08-23T07:27:34.589Z,20.30
2018-08-23T07:30:04.335Z,20.50
2018-08-23T07:32:33.869Z,20.50
2018-08-23T07:35:10.865Z,20.70
2018-08-23T07:37:42.156Z,20.80
2018-08-23T07:40:17.624Z,20.90
2018-08-23T07:42:50.996Z,20.90
2018-08-23T07:45:21.474Z,21.00
2018-08-23T07:47:55.254Z,21.10
2018-08-23T07:50:25.708Z,21.20
2018-08-23T07:52:55.306Z,21.30
2018-08-23T07:55:24.708Z,21.30
2018-08-23T07:57:53.876Z,21.40
2018-08-23T08:00:31.322Z,21.50
2018-08-23T08:03:00.455Z,21.60
2018-08-23T08:05:32.125Z,21.70
2018-08-23T08:08:01.193Z,21.80
2018-08-23T08:10:34.666Z,21.90
2018-08-23T08:13:04.190Z,22.00
2018-08-23T08:15:34.538Z,22.00
2018-08-23T08:18:13.623Z,22.10
2018-08-23T08:20:46.056Z,22.20
2018-08-23T08:23:15.389Z,22.20
2018-08-23T08:25:44.860Z,22.20
2018-08-23T08:28:16.264Z,22.30
2018-08-23T08:30:46.905Z,22.40
2018-08-23T08:33:19.939Z,22.50
2018-08-23T08:35:49.040Z,22.50
2018-08-23T08:38:18.171Z,22.60
2018-08-23T08:40:51.536Z,22.70
2018-08-23T08:43:21.004Z,22.80
2018-08-23T08:45:55.044Z,23.00
2018-08-23T08:48:33.575Z,23.10
2018-08-23T08:51:32.588Z,23.30
2018-08-23T08:54:03.322Z,23.40
2018-08-23T08:56:37.789Z,23.50
2018-08-23T08:59:08.953Z,23.60
2018-08-23T09:01:38.249Z,23.70
2018-08-23T09:04:08.328Z,23.80
2018-08-23T09:06:45.966Z,23.80
2018-08-23T09:09:45.874Z,24.00
2018-08-23T09:12:14.984Z,24.00
2018-08-23T09:14:46.338Z,24.10
2018-08-23T09:17:31.520Z,24.20
2018-08-23T09:20:03.332Z,24.30
2018-08-23T09:22:38.950Z,24.50
2018-08-23T09:25:15.367Z,24.60
2018-08-23T09:27:45.295Z,24.80
2018-08-23T09:30:19.775Z,24.90
2018-08-23T09:32:49.065Z,24.90
2018-08-23T09:35:18.907Z,24.90
2018-08-23T09:37:56.241Z,24.90
2018-08-23T09:40:26.871Z,24.80
2018-08-23T09:42:58.553Z,24.70
2018-08-23T09:45:33.613Z,24.60
2018-08-23T09:48:05.350Z,24.40
2018-08-23T09:50:35.583Z,24.30
2018-08-23T09:53:11.010Z,24.30
2018-08-23T09:55:40.620Z,24.40
2018-08-23T09:58:16.843Z,24.60
2018-08-23T10:00:51.253Z,24.90
2018-08-23T10:03:25.365Z,25.10
2018-08-23T10:06:00.364Z,25.30
2018-08-23T10:08:37.387Z,25.50
2018-08-23T10:11:21.705Z,25.60
2018-08-23T10:13:57.995Z,25.70
2018-08-23T10:16:32.460Z,25.80
2018-08-23T10:19:11.355Z,25.90
2018-08-23T10:21:46.549Z,26.00
2018-08-23T10:24:27.632Z,26.10
2018-08-23T10:27:23.491Z,26.20
2018-08-23T10:30:16.793Z,26.30
2018-08-23T10:32:58.224Z,26.40
2018-08-23T10:35:28.660Z,26.60
2018-08-23T10:37:59.690Z,26.70
2018-08-23T10:40:51.446Z,26.70
2018-08-23T10:43:29.772Z,26.70
2018-08-23T10:46:08.698Z,26.80
2018-08-23T10:48:41.064Z,26.80
2018-08-23T10:54:00.743Z,26.90
2018-08-23T10:56:34.470Z,26.90
2018-08-23T10:59:05.088Z,27.00
2018-08-23T11:01:36.215Z,26.90
2018-08-23T11:04:13.774Z,26.90
2018-08-23T11:06:51.891Z,26.80
2018-08-23T11:09:27.573Z,26.70
2018-08-23T11:11:57.872Z,26.60
2018-08-23T11:14:33.479Z,26.50
2018-08-23T11:19:59.622Z,26.50
2018-08-23T11:22:35.168Z,26.60
2018-08-23T11:25:09.335Z,26.50
2018-08-23T11:27:40.557Z,26.50
2018-08-23T11:30:11.864Z,26.50
2018-08-23T11:32:43.949Z,26.60
2018-08-23T11:35:39.908Z,26.60
2018-08-23T11:38:17.826Z,26.60
2018-08-23T11:40:49.945Z,26.70
2018-08-23T11:43:21.860Z,26.70
2018-08-23T11:45:56.483Z,26.70
2018-08-23T11:48:33.447Z,26.70
2018-08-23T11:51:11.655Z,26.70
2018-08-23T11:53:43.994Z,26.60
2018-08-23T11:56:17.563Z,26.70
2018-08-23T11:58:47.395Z,26.80
2018-08-23T12:01:18.359Z,27.00
2018-08-23T12:03:47.874Z,26.90
2018-08-23T12:06:17.929Z,26.80
2018-08-23T12:08:47.558Z,26.70
2018-08-23T12:11:20.815Z,26.70
2018-08-23T12:13:51.052Z,26.60
2018-08-23T12:16:24.158Z,26.60
2018-08-23T12:18:55.470Z,26.50
2018-08-23T12:21:25.298Z,26.40
2018-08-23T12:23:55.513Z,26.40
2018-08-23T12:26:24.883Z,26.50
2018-08-23T12:29:01.389Z,26.50
2018-08-23T12:31:33.289Z,26.50
2018-08-23T12:34:06.384Z,26.50
2018-08-23T12:36:42.256Z,26.50
2018-08-23T12:39:17.798Z,26.50
2018-08-23T12:41:52.147Z,26.40
2018-08-23T12:44:21.332Z,26.50
2018-08-23T12:46:56.758Z,26.40
2018-08-23T12:49:26.107Z,26.40
2018-08-23T12:52:00.870Z,26.30
2018-08-23T12:54:31.020Z,26.30
2018-08-23T12:57:02.337Z,26.30
2018-08-23T12:59:35.391Z,26.40
2018-08-23T13:02:05.352Z,26.50
2018-08-23T13:04:35.454Z,26.40
2018-08-23T13:07:04.659Z,26.30
2018-08-23T13:09:34.021Z,26.20
2018-08-23T13:12:04.947Z,26.20
2018-08-23T13:14:36.442Z,26.20
2018-08-23T13:17:05.845Z,26.10
2018-08-23T13:19:35.349Z,26.10
2018-08-23T13:22:04.745Z,26.10
2018-08-23T13:24:38.369Z,26.20
2018-08-23T13:27:28.431Z,26.20
2018-08-23T13:29:58.626Z,26.30
2018-08-23T13:32:28.179Z,26.20
2018-08-23T13:34:57.938Z,26.20
2018-08-23T13:37:27.858Z,26.20
2018-08-23T13:39:57.373Z,26.20
2018-08-23T13:42:26.813Z,26.20
2018-08-23T13:44:56.382Z,26.30
2018-08-23T13:47:30.848Z,26.30
2018-08-23T13:50:00.037Z,26.30
2018-08-23T13:52:30.732Z,26.20
2018-08-23T13:55:00.243Z,26.20
2018-08-23T13:57:29.473Z,26.10
2018-08-23T13:59:59.218Z,26.10
2018-08-23T14:02:28.648Z,26.00
2018-08-23T14:05:03.784Z,26.00
2018-08-23T14:07:33.128Z,26.00
2018-08-23T14:10:02.323Z,26.00
2018-08-23T14:12:32.055Z,26.00
2018-08-23T14:15:01.668Z,26.00
2018-08-23T14:17:30.977Z,26.00
2018-08-23T14:20:01.233Z,25.90
2018-08-23T14:22:31.077Z,25.90
2018-08-23T14:25:00.692Z,25.80
2018-08-23T14:27:32.920Z,25.90
2018-08-23T14:30:02.894Z,25.90
2018-08-23T14:32:32.308Z,25.90
2018-08-23T14:35:03.384Z,25.90
2018-08-23T14:37:32.848Z,25.80
2018-08-23T14:40:02.268Z,25.80
2018-08-23T14:42:33.754Z,25.80
2018-08-23T14:45:03.347Z,25.80
2018-08-23T14:47:37.669Z,25.70
2018-08-23T14:50:07.164Z,25.80
2018-08-23T14:52:36.442Z,25.70
2018-08-23T14:55:06.052Z,25.70
2018-08-23T14:57:37.515Z,25.60
2018-08-23T15:00:08.147Z,25.60
2018-08-23T15:02:37.367Z,25.50
2018-08-23T15:05:08.773Z,25.40
2018-08-23T15:07:38.824Z,25.30
2018-08-23T15:10:08.385Z,25.20
2018-08-23T15:12:37.750Z,25.20
2018-08-23T15:15:08.844Z,25.20
2018-08-23T15:17:38.477Z,25.20
2018-08-23T15:20:08.304Z,25.20
2018-08-23T15:22:38.111Z,25.20
2018-08-23T15:25:07.717Z,25.20
2018-08-23T15:27:38.093Z,25.10
2018-08-23T15:30:09.749Z,25.10
2018-08-23T15:32:39.509Z,25.10
2018-08-23T15:35:12.781Z,25.00
2018-08-23T15:37:42.926Z,25.00
2018-08-23T15:40:12.968Z,25.00
2018-08-23T15:42:42.660Z,25.00
2018-08-23T15:45:11.790Z,25.00
2018-08-23T15:47:41.005Z,25.00
2018-08-23T15:50:10.172Z,25.00
2018-08-23T15:52:39.342Z,25.00
2018-08-23T15:55:08.815Z,25.00
2018-08-23T15:57:39.766Z,24.90
2018-08-23T16:00:09.860Z,25.00
2018-08-23T16:02:39.306Z,24.90
2018-08-23T16:05:09.900Z,24.90
2018-08-23T16:07:42.025Z,24.90
2018-08-23T16:10:14.218Z,24.80
2018-08-23T16:12:50.307Z,24.80
2018-08-23T16:15:23.082Z,24.70
2018-08-23T16:17:57.549Z,24.70
2018-08-23T16:20:32.164Z,24.70
2018-08-23T16:23:05.057Z,24.60
2018-08-23T16:25:52.623Z,24.60
2018-08-23T16:28:22.206Z,24.60
2018-08-23T16:30:52.067Z,24.60
2018-08-23T16:33:21.580Z,24.60
2018-08-23T16:35:50.805Z,24.60
2018-08-23T16:38:21.831Z,24.60
2018-08-23T16:40:53.807Z,24.60
2018-08-23T16:43:23.978Z,24.60
2018-08-23T16:45:54.882Z,24.50
2018-08-23T16:48:28.729Z,24.50
2018-08-23T16:50:58.863Z,24.40
2018-08-23T16:53:28.074Z,24.30
2018-08-23T16:55:59.877Z,24.30
2018-08-23T16:58:29.276Z,24.40
2018-08-23T17:00:58.654Z,24.30
2018-08-23T17:03:32.890Z,24.20
2018-08-23T17:06:02.456Z,24.20
2018-08-23T17:08:31.985Z,24.20
2018-08-23T17:11:02.588Z,24.10
2018-08-23T17:13:38.189Z,24.10
2018-08-23T17:16:13.366Z,24.10
2018-08-23T17:18:44.356Z,24.10
2018-08-23T17:21:14.469Z,24.10
2018-08-23T17:23:45.002Z,24.00
2018-08-23T17:26:14.368Z,24.00
2018-08-23T17:28:43.861Z,23.90
2018-08-23T17:31:13.392Z,23.80
2018-08-23T17:33:42.931Z,23.80
2018-08-23T17:36:14.065Z,23.70
2018-08-23T17:38:45.241Z,23.60
2018-08-23T17:41:17.498Z,23.60
2018-08-23T17:43:48.296Z,23.60
2018-08-23T17:46:17.463Z,23.50
2018-08-23T17:48:53.638Z,23.50
2018-08-23T17:51:28.222Z,23.50
2018-08-23T17:53:58.113Z,23.50
2018-08-23T17:56:29.184Z,23.40
2018-08-23T17:58:59.588Z,23.40
2018-08-23T18:01:29.048Z,23.30
2018-08-23T18:03:58.976Z,23.30
2018-08-23T18:06:31.262Z,23.20
2018-08-23T18:09:01.168Z,23.20
2018-08-23T18:11:32.888Z,23.10
2018-08-23T18:14:02.170Z,23.00
2018-08-23T18:16:39.449Z,22.90
2018-08-23T18:19:11.041Z,22.90
2018-08-23T18:21:43.727Z,22.90
2018-08-23T18:24:13.014Z,22.90
2018-08-23T18:26:42.478Z,22.80
2018-08-23T18:29:11.827Z,22.80
2018-08-23T18:31:41.823Z,22.80
2018-08-23T18:34:12.412Z,22.80
2018-08-23T18:36:43.970Z,22.70
2018-08-23T18:39:13.230Z,22.70
2018-08-23T18:41:42.760Z,22.70
2018-08-23T18:44:12.791Z,22.60
2018-08-23T18:46:45.629Z,22.60
2018-08-23T18:49:15.156Z,22.60
2018-08-23T18:51:45.306Z,22.50
2018-08-23T18:54:15.395Z,22.40
2018-08-23T18:56:44.867Z,22.30
2018-08-23T18:59:16.076Z,22.30
2018-08-23T19:01:45.411Z,22.20
2018-08-23T19:04:16.072Z,22.20
2018-08-23T19:06:45.745Z,22.10
2018-08-23T19:09:17.641Z,22.10
2018-08-23T19:11:47.849Z,22.00
2018-08-23T19:14:18.513Z,21.90
2018-08-23T19:16:55.757Z,21.90
2018-08-23T19:19:28.620Z,21.80
2018-08-23T19:21:59.688Z,21.70
2018-08-23T19:24:30.401Z,21.70
2018-08-23T19:27:00.042Z,21.60
2018-08-23T19:29:29.863Z,21.50
2018-08-23T19:31:59.667Z,21.50
2018-08-23T19:34:28.947Z,21.40
2018-08-23T19:36:58.890Z,21.30
2018-08-23T19:39:30.768Z,21.30
2018-08-23T19:42:00.302Z,21.20
2018-08-23T19:44:30.383Z,21.10
2018-08-23T19:47:06.224Z,21.10
2018-08-23T19:49:44.108Z,21.00
2018-08-23T19:52:13.861Z,21.00
2018-08-23T19:54:53.619Z,20.90
2018-08-23T19:57:25.482Z,20.90
2018-08-23T19:59:56.297Z,20.90
2018-08-23T20:02:25.874Z,20.90
2018-08-23T20:04:56.387Z,20.80
2018-08-23T20:07:28.768Z,20.80
2018-08-23T20:10:02.967Z,20.70
2018-08-23T20:12:33.855Z,20.70
2018-08-23T20:15:07.165Z,20.70
2018-08-23T20:17:38.557Z,20.60
2018-08-23T20:20:10.431Z,20.60
2018-08-23T20:22:41.209Z,20.60
2018-08-23T20:25:10.673Z,20.50
2018-08-23T20:27:40.526Z,20.50
2018-08-23T20:30:09.818Z,20.50
2018-08-23T20:32:40.227Z,20.50
2018-08-23T20:35:11.676Z,20.40
2018-08-23T20:37:44.182Z,20.40
2018-08-23T20:43:01.823Z,20.30
2018-08-23T20:45:31.670Z,20.30
2018-08-23T20:48:02.992Z,20.30
2018-08-23T20:50:33.184Z,20.30
2018-08-23T20:53:03.721Z,20.30
2018-08-23T20:55:32.992Z,20.30
2018-08-23T20:58:04.559Z,20.30
2018-08-23T21:00:34.550Z,20.30
2018-08-23T21:03:05.248Z,20.30
2018-08-23T21:05:34.988Z,20.30
2018-08-23T21:08:05.377Z,20.30
2018-08-23T21:10:38.970Z,20.20
2018-08-23T21:13:08.595Z,20.20
2018-08-23T21:15:38.852Z,20.20
2018-08-23T21:18:15.353Z,20.10
2018-08-23T21:20:45.362Z,20.10
2018-08-23T21:23:21.488Z,20.10
2018-08-23T21:25:50.932Z,20.10
2018-08-23T21:28:20.447Z,20.10
2018-08-23T21:30:49.927Z,20.10
2018-08-23T21:33:20.288Z,20.10
2018-08-23T21:35:51.682Z,20.10
2018-08-23T21:38:21.742Z,20.10
2018-08-23T21:40:55.170Z,20.00
2018-08-23T21:43:24.434Z,20.10
2018-08-23T21:45:58.306Z,20.10
2018-08-23T21:48:27.976Z,20.10
2018-08-23T21:51:00.126Z,20.10
2018-08-23T21:53:31.384Z,20.10
2018-08-23T21:56:02.270Z,20.10
2018-08-23T21:58:32.509Z,20.10
2018-08-23T22:01:08.266Z,20.10
2018-08-23T22:03:39.455Z,20.10
2018-08-23T22:06:13.382Z,20.10
2018-08-23T22:08:43.642Z,20.10
2018-08-23T22:11:13.309Z,20.10
2018-08-23T22:13:42.461Z,20.20
2018-08-23T22:16:11.792Z,20.20
2018-08-23T22:18:41.172Z,20.20
2018-08-23T22:21:11.170Z,20.20
2018-08-23T22:23:43.510Z,20.20
2018-08-23T22:26:12.940Z,20.30
2018-08-23T22:28:43.417Z,20.30
2018-08-23T22:31:13.223Z,20.40
2018-08-23T22:33:42.381Z,20.40
2018-08-23T22:36:11.792Z,20.40
2018-08-23T22:38:40.957Z,20.50
2018-08-23T22:41:14.414Z,20.50
2018-08-23T22:43:48.739Z,20.50
2018-08-23T22:46:17.975Z,20.50
2018-08-23T22:48:49.444Z,20.50
2018-08-23T22:51:18.834Z,20.50
2018-08-23T22:53:48.018Z,20.50
2018-08-23T22:56:19.326Z,20.60
2018-08-23T22:58:56.096Z,20.60
2018-08-23T23:01:28.263Z,20.60
2018-08-23T23:04:02.745Z,20.60
2018-08-23T23:06:33.693Z,20.70
2018-08-23T23:09:04.139Z,20.70
2018-08-23T23:11:33.913Z,20.70
2018-08-23T23:14:03.093Z,20.70
2018-08-23T23:16:33.432Z,20.70
2018-08-23T23:19:02.905Z,20.80
2018-08-23T23:21:32.777Z,20.70
2018-08-23T23:24:02.436Z,20.70
2018-08-23T23:26:33.028Z,20.60
2018-08-23T23:29:04.319Z,20.30
2018-08-23T23:31:33.499Z,20.10
2018-08-23T23:34:03.928Z,19.70
2018-08-23T23:36:33.397Z,19.40
2018-08-23T23:39:03.646Z,19.30
2018-08-23T23:41:33.184Z,19.20
2018-08-23T23:44:02.269Z,19.10
2018-08-23T23:46:31.321Z,19.10
2018-08-23T23:49:00.414Z,19.00
2018-08-23T23:51:33.740Z,19.00
2018-08-23T23:54:02.900Z,19.00
2018-08-23T23:56:32.515Z,18.90
2018-08-23T23:59:01.534Z,18.90
